sensor_id;sensor_type;location;lat;lon;timestamp;temperature;humidity
41722;DHT22;27407;24.142;-110.310;2023-05-10T00:01:17;33.40;51.10
41722;DHT22;27407;24.142;-110.310;2023-05-10T00:03:50;33.70;48.20
41722;DHT22;27407;24.142;-110.310;2023-05-10T00:06:23;34.20;47.60
41722;DHT22;27407;24.142;-110.310;2023-05-10T00:08:55;34.90;48.00
41722;DHT22;27407;24.142;-110.310;2023-05-10T00:11:45;34.90;48.50
41722;DHT22;27407;24.142;-110.310;2023-05-10T00:14:15;34.70;48.60
41722;DHT22;27407;24.142;-110.310;2023-05-10T00:17:00;34.50;50.50
41722;DHT22;27407;24.142;-110.310;2023-05-10T00:19:33;34.40;50.40
41722;DHT22;27407;24.142;-110.310;2023-05-10T00:22:11;34.40;51.20
41722;DHT22;27407;24.142;-110.310;2023-05-10T00:24:56;34.40;51.10
41722;DHT22;27407;24.142;-110.310;2023-05-10T00:27:33;34.30;49.40
41722;DHT22;27407;24.142;-110.310;2023-05-10T00:30:07;34.10;49.30
41722;DHT22;27407;24.142;-110.310;2023-05-10T00:32:40;34.10;47.80
41722;DHT22;27407;24.142;-110.310;2023-05-10T00:35:20;34.90;46.10
41722;DHT22;27407;24.142;-110.310;2023-05-10T00:37:48;35.80;45.50
41722;DHT22;27407;24.142;-110.310;2023-05-10T00:40:18;36.90;46.10
41722;DHT22;27407;24.142;-110.310;2023-05-10T00:42:48;37.50;45.60
41722;DHT22;27407;24.142;-110.310;2023-05-10T00:45:16;37.10;45.60
41722;DHT22;27407;24.142;-110.310;2023-05-10T00:47:44;36.40;45.50
41722;DHT22;27407;24.142;-110.310;2023-05-10T00:50:15;35.60;48.40
41722;DHT22;27407;24.142;-110.310;2023-05-10T00:52:46;34.70;51.90
41722;DHT22;27407;24.142;-110.310;2023-05-10T00:55:15;33.90;55.80
41722;DHT22;27407;24.142;-110.310;2023-05-10T00:58:11;33.40;57.00
41722;DHT22;27407;24.142;-110.310;2023-05-10T01:01:16;32.80;57.80
41722;DHT22;27407;24.142;-110.310;2023-05-10T01:03:53;33.00;57.60
41722;DHT22;27407;24.142;-110.310;2023-05-10T01:06:29;33.80;55.50
41722;DHT22;27407;24.142;-110.310;2023-05-10T01:08:59;34.30;53.90
41722;DHT22;27407;24.142;-110.310;2023-05-10T01:11:27;33.70;55.10
41722;DHT22;27407;24.142;-110.310;2023-05-10T01:14:20;33.50;54.60
41722;DHT22;27407;24.142;-110.310;2023-05-10T01:17:06;33.70;54.20
41722;DHT22;27407;24.142;-110.310;2023-05-10T01:19:40;34.60;54.20
41722;DHT22;27407;24.142;-110.310;2023-05-10T01:25:33;34.50;49.60
41722;DHT22;27407;24.142;-110.310;2023-05-10T01:38:29;33.40;59.90
41722;DHT22;27407;24.142;-110.310;2023-05-10T01:46:51;32.20;64.20
41722;DHT22;27407;24.142;-110.310;2023-05-10T01:49:37;31.90;64.80
41722;DHT22;27407;24.142;-110.310;2023-05-10T01:52:12;31.70;65.50
41722;DHT22;27407;24.142;-110.310;2023-05-10T01:54:43;31.60;66.10
41722;DHT22;27407;24.142;-110.310;2023-05-10T01:57:11;31.50;66.50
41722;DHT22;27407;24.142;-110.310;2023-05-10T01:59:41;31.20;66.60
41722;DHT22;27407;24.142;-110.310;2023-05-10T02:02:10;31.20;67.00
41722;DHT22;27407;24.142;-110.310;2023-05-10T02:04:40;31.10;67.30
41722;DHT22;27407;24.142;-110.310;2023-05-10T02:07:07;30.90;67.80
41722;DHT22;27407;24.142;-110.310;2023-05-10T02:09:43;30.80;68.20
41722;DHT22;27407;24.142;-110.310;2023-05-10T02:12:16;30.50;68.70
41722;DHT22;27407;24.142;-110.310;2023-05-10T02:14:45;30.60;69.10
41722;DHT22;27407;24.142;-110.310;2023-05-10T02:17:14;30.50;69.00
41722;DHT22;27407;24.142;-110.310;2023-05-10T02:19:42;30.50;69.20
41722;DHT22;27407;24.142;-110.310;2023-05-10T02:22:13;30.20;69.50
41722;DHT22;27407;24.142;-110.310;2023-05-10T02:24:46;30.20;69.80
41722;DHT22;27407;24.142;-110.310;2023-05-10T02:27:18;30.10;70.10
41722;DHT22;27407;24.142;-110.310;2023-05-10T02:29:47;30.10;70.50
41722;DHT22;27407;24.142;-110.310;2023-05-10T02:32:15;30.00;70.70
41722;DHT22;27407;24.142;-110.310;2023-05-10T02:34:43;29.90;71.10
41722;DHT22;27407;24.142;-110.310;2023-05-10T02:37:14;29.70;71.80
41722;DHT22;27407;24.142;-110.310;2023-05-10T02:39:41;29.50;72.60
41722;DHT22;27407;24.142;-110.310;2023-05-10T02:42:20;29.60;73.00
41722;DHT22;27407;24.142;-110.310;2023-05-10T02:44:51;29.50;73.60
41722;DHT22;27407;24.142;-110.310;2023-05-10T02:47:19;29.30;74.20
41722;DHT22;27407;24.142;-110.310;2023-05-10T02:49:47;29.20;75.00
41722;DHT22;27407;24.142;-110.310;2023-05-10T02:52:29;29.10;75.60
41722;DHT22;27407;24.142;-110.310;2023-05-10T02:55:02;29.00;76.30
41722;DHT22;27407;24.142;-110.310;2023-05-10T02:57:33;29.00;76.60
41722;DHT22;27407;24.142;-110.310;2023-05-10T03:00:01;28.90;77.10
41722;DHT22;27407;24.142;-110.310;2023-05-10T03:02:29;28.90;77.10
41722;DHT22;27407;24.142;-110.310;2023-05-10T03:04:56;28.80;77.30
41722;DHT22;27407;24.142;-110.310;2023-05-10T03:07:23;28.70;77.20
41722;DHT22;27407;24.142;-110.310;2023-05-10T03:09:50;28.60;77.40
41722;DHT22;27407;24.142;-110.310;2023-05-10T03:12:41;28.60;77.70
41722;DHT22;27407;24.142;-110.310;2023-05-10T03:18:14;28.30;78.30
41722;DHT22;27407;24.142;-110.310;2023-05-10T03:20:50;28.30;78.80
41722;DHT22;27407;24.142;-110.310;2023-05-10T03:25:48;28.10;79.70
41722;DHT22;27407;24.142;-110.310;2023-05-10T03:28:16;28.20;80.00
41722;DHT22;27407;24.142;-110.310;2023-05-10T03:30:45;28.10;80.30
41722;DHT22;27407;24.142;-110.310;2023-05-10T03:33:12;28.00;80.60
41722;DHT22;27407;24.142;-110.310;2023-05-10T03:35:40;27.90;81.00
41722;DHT22;27407;24.142;-110.310;2023-05-10T03:38:06;27.80;81.00
41722;DHT22;27407;24.142;-110.310;2023-05-10T03:40:33;27.70;81.50
41722;DHT22;27407;24.142;-110.310;2023-05-10T03:43:00;27.80;81.80
41722;DHT22;27407;24.142;-110.310;2023-05-10T03:45:27;27.50;82.50
41722;DHT22;27407;24.142;-110.310;2023-05-10T03:47:54;27.40;83.00
41722;DHT22;27407;24.142;-110.310;2023-05-10T03:50:21;27.40;83.50
41722;DHT22;27407;24.142;-110.310;2023-05-10T03:52:48;27.20;83.90
41722;DHT22;27407;24.142;-110.310;2023-05-10T03:55:15;27.20;84.10
41722;DHT22;27407;24.142;-110.310;2023-05-10T03:57:42;27.30;84.40
41722;DHT22;27407;24.142;-110.310;2023-05-10T04:00:09;27.20;84.90
41722;DHT22;27407;24.142;-110.310;2023-05-10T04:02:36;27.00;85.70
41722;DHT22;27407;24.142;-110.310;2023-05-10T04:05:03;27.00;85.70
41722;DHT22;27407;24.142;-110.310;2023-05-10T04:07:30;26.90;86.10
41722;DHT22;27407;24.142;-110.310;2023-05-10T04:09:56;26.90;86.40
41722;DHT22;27407;24.142;-110.310;2023-05-10T04:12:23;26.90;87.00
41722;DHT22;27407;24.142;-110.310;2023-05-10T04:14:50;26.70;87.60
41722;DHT22;27407;24.142;-110.310;2023-05-10T04:17:17;26.50;88.70
41722;DHT22;27407;24.142;-110.310;2023-05-10T04:19:43;26.50;89.00
41722;DHT22;27407;24.142;-110.310;2023-05-10T04:22:10;26.30;89.70
41722;DHT22;27407;24.142;-110.310;2023-05-10T04:24:37;26.30;90.10
41722;DHT22;27407;24.142;-110.310;2023-05-10T04:27:03;26.30;90.20
41722;DHT22;27407;24.142;-110.310;2023-05-10T04:29:30;26.10;90.50
41722;DHT22;27407;24.142;-110.310;2023-05-10T04:31:57;25.90;90.80
41722;DHT22;27407;24.142;-110.310;2023-05-10T04:34:24;25.90;91.00
41722;DHT22;27407;24.142;-110.310;2023-05-10T04:36:54;25.80;91.30
41722;DHT22;27407;24.142;-110.310;2023-05-10T04:39:21;25.80;91.20
41722;DHT22;27407;24.142;-110.310;2023-05-10T04:41:47;25.70;91.50
41722;DHT22;27407;24.142;-110.310;2023-05-10T04:44:14;25.60;91.60
41722;DHT22;27407;24.142;-110.310;2023-05-10T04:46:44;25.50;91.90
41722;DHT22;27407;24.142;-110.310;2023-05-10T04:49:10;25.50;92.10
41722;DHT22;27407;24.142;-110.310;2023-05-10T04:51:37;25.40;92.20
41722;DHT22;27407;24.142;-110.310;2023-05-10T04:54:04;25.40;92.60
41722;DHT22;27407;24.142;-110.310;2023-05-10T04:56:31;25.30;92.80
41722;DHT22;27407;24.142;-110.310;2023-05-10T04:58:57;25.20;93.10
41722;DHT22;27407;24.142;-110.310;2023-05-10T05:01:24;25.10;93.70
41722;DHT22;27407;24.142;-110.310;2023-05-10T05:03:51;25.00;94.30
41722;DHT22;27407;24.142;-110.310;2023-05-10T05:06:18;24.90;94.60
41722;DHT22;27407;24.142;-110.310;2023-05-10T05:08:47;24.80;95.30
41722;DHT22;27407;24.142;-110.310;2023-05-10T05:11:15;24.80;95.40
41722;DHT22;27407;24.142;-110.310;2023-05-10T05:13:41;24.70;95.90
41722;DHT22;27407;24.142;-110.310;2023-05-10T05:16:08;24.80;96.50
41722;DHT22;27407;24.142;-110.310;2023-05-10T05:18:36;24.60;96.40
41722;DHT22;27407;24.142;-110.310;2023-05-10T05:21:03;24.50;97.10
41722;DHT22;27407;24.142;-110.310;2023-05-10T05:23:30;24.40;97.50
41722;DHT22;27407;24.142;-110.310;2023-05-10T05:25:56;24.40;97.90
41722;DHT22;27407;24.142;-110.310;2023-05-10T05:28:23;24.30;98.20
41722;DHT22;27407;24.142;-110.310;2023-05-10T05:30:50;24.30;98.60
41722;DHT22;27407;24.142;-110.310;2023-05-10T05:33:17;24.50;98.50
41722;DHT22;27407;24.142;-110.310;2023-05-10T05:35:43;24.50;98.60
41722;DHT22;27407;24.142;-110.310;2023-05-10T05:38:13;24.40;98.80
41722;DHT22;27407;24.142;-110.310;2023-05-10T05:40:40;24.40;99.20
41722;DHT22;27407;24.142;-110.310;2023-05-10T05:43:07;24.30;99.60
41722;DHT22;27407;24.142;-110.310;2023-05-10T05:45:33;24.30;99.90
41722;DHT22;27407;24.142;-110.310;2023-05-10T05:48:00;24.20;99.90
41722;DHT22;27407;24.142;-110.310;2023-05-10T05:50:27;24.10;99.90
41722;DHT22;27407;24.142;-110.310;2023-05-10T05:52:54;24.10;99.90
41722;DHT22;27407;24.142;-110.310;2023-05-10T05:55:21;24.00;99.90
41722;DHT22;27407;24.142;-110.310;2023-05-10T05:57:47;23.90;99.90
41722;DHT22;27407;24.142;-110.310;2023-05-10T06:00:14;24.00;99.90
41722;DHT22;27407;24.142;-110.310;2023-05-10T06:02:41;24.00;99.90
41722;DHT22;27407;24.142;-110.310;2023-05-10T06:05:08;23.90;99.90
41722;DHT22;27407;24.142;-110.310;2023-05-10T06:07:35;24.10;99.90
41722;DHT22;27407;24.142;-110.310;2023-05-10T06:10:02;23.90;99.90
41722;DHT22;27407;24.142;-110.310;2023-05-10T06:12:29;23.90;99.90
41722;DHT22;27407;24.142;-110.310;2023-05-10T06:14:55;24.00;99.90
41722;DHT22;27407;24.142;-110.310;2023-05-10T06:17:22;24.00;99.90
41722;DHT22;27407;24.142;-110.310;2023-05-10T06:19:50;23.90;99.90
41722;DHT22;27407;24.142;-110.310;2023-05-10T06:22:16;23.80;99.90
41722;DHT22;27407;24.142;-110.310;2023-05-10T06:24:43;23.70;99.90
41722;DHT22;27407;24.142;-110.310;2023-05-10T06:27:10;23.70;99.90
41722;DHT22;27407;24.142;-110.310;2023-05-10T06:29:37;23.70;99.90
41722;DHT22;27407;24.142;-110.310;2023-05-10T06:32:03;23.70;99.90
41722;DHT22;27407;24.142;-110.310;2023-05-10T06:34:30;23.50;99.90
41722;DHT22;27407;24.142;-110.310;2023-05-10T06:36:57;23.50;99.90
41722;DHT22;27407;24.142;-110.310;2023-05-10T06:39:24;23.40;99.90
41722;DHT22;27407;24.142;-110.310;2023-05-10T06:41:51;23.30;99.90
41722;DHT22;27407;24.142;-110.310;2023-05-10T06:44:18;23.40;99.90
41722;DHT22;27407;24.142;-110.310;2023-05-10T06:46:44;23.40;99.90
41722;DHT22;27407;24.142;-110.310;2023-05-10T06:49:11;23.30;99.90
41722;DHT22;27407;24.142;-110.310;2023-05-10T06:51:38;23.20;99.90
41722;DHT22;27407;24.142;-110.310;2023-05-10T06:54:04;23.20;99.90
41722;DHT22;27407;24.142;-110.310;2023-05-10T06:56:31;23.30;99.90
41722;DHT22;27407;24.142;-110.310;2023-05-10T06:58:58;23.20;99.90
41722;DHT22;27407;24.142;-110.310;2023-05-10T07:01:25;23.20;99.90
41722;DHT22;27407;24.142;-110.310;2023-05-10T07:03:51;23.10;99.90
41722;DHT22;27407;24.142;-110.310;2023-05-10T07:06:18;23.30;99.90
41722;DHT22;27407;24.142;-110.310;2023-05-10T07:08:45;23.20;99.90
41722;DHT22;27407;24.142;-110.310;2023-05-10T07:11:11;23.20;99.90
41722;DHT22;27407;24.142;-110.310;2023-05-10T07:13:38;23.30;99.90
41722;DHT22;27407;24.142;-110.310;2023-05-10T07:16:07;23.20;99.90
41722;DHT22;27407;24.142;-110.310;2023-05-10T07:18:33;23.10;99.90
41722;DHT22;27407;24.142;-110.310;2023-05-10T07:21:00;23.20;99.90
41722;DHT22;27407;24.142;-110.310;2023-05-10T07:23:27;23.20;99.90
41722;DHT22;27407;24.142;-110.310;2023-05-10T07:25:54;23.20;99.90
41722;DHT22;27407;24.142;-110.310;2023-05-10T07:28:21;23.20;99.90
41722;DHT22;27407;24.142;-110.310;2023-05-10T07:30:48;23.20;99.90
41722;DHT22;27407;24.142;-110.310;2023-05-10T07:33:15;23.30;99.90
41722;DHT22;27407;24.142;-110.310;2023-05-10T07:35:42;23.30;99.90
41722;DHT22;27407;24.142;-110.310;2023-05-10T07:38:09;23.30;99.90
41722;DHT22;27407;24.142;-110.310;2023-05-10T07:40:37;23.20;99.90
41722;DHT22;27407;24.142;-110.310;2023-05-10T07:43:04;23.30;99.90
41722;DHT22;27407;24.142;-110.310;2023-05-10T07:45:31;23.40;99.90
41722;DHT22;27407;24.142;-110.310;2023-05-10T07:47:58;23.50;99.80
41722;DHT22;27407;24.142;-110.310;2023-05-10T07:50:25;23.50;99.30
41722;DHT22;27407;24.142;-110.310;2023-05-10T07:52:52;23.50;98.80
41722;DHT22;27407;24.142;-110.310;2023-05-10T07:55:19;23.40;98.30
41722;DHT22;27407;24.142;-110.310;2023-05-10T07:57:47;23.70;97.20
41722;DHT22;27407;24.142;-110.310;2023-05-10T08:00:17;23.80;95.60
41722;DHT22;27407;24.142;-110.310;2023-05-10T08:02:44;23.90;94.90
41722;DHT22;27407;24.142;-110.310;2023-05-10T08:05:11;23.80;94.70
41722;DHT22;27407;24.142;-110.310;2023-05-10T08:07:38;23.80;94.80
41722;DHT22;27407;24.142;-110.310;2023-05-10T08:10:06;23.80;94.40
41722;DHT22;27407;24.142;-110.310;2023-05-10T08:12:33;23.90;94.30
41722;DHT22;27407;24.142;-110.310;2023-05-10T08:14:59;23.70;94.70
41722;DHT22;27407;24.142;-110.310;2023-05-10T08:17:26;23.60;95.50
41722;DHT22;27407;24.142;-110.310;2023-05-10T08:19:53;23.50;96.10
41722;DHT22;27407;24.142;-110.310;2023-05-10T08:22:19;23.30;97.30
41722;DHT22;27407;24.142;-110.310;2023-05-10T08:24:46;23.20;97.30
41722;DHT22;27407;24.142;-110.310;2023-05-10T08:27:13;23.20;96.60
41722;DHT22;27407;24.142;-110.310;2023-05-10T08:29:39;23.30;96.60
41722;DHT22;27407;24.142;-110.310;2023-05-10T08:32:06;23.40;95.30
41722;DHT22;27407;24.142;-110.310;2023-05-10T08:34:33;23.40;94.30
41722;DHT22;27407;24.142;-110.310;2023-05-10T08:36:59;23.40;93.90
41722;DHT22;27407;24.142;-110.310;2023-05-10T08:39:26;23.40;93.90
41722;DHT22;27407;24.142;-110.310;2023-05-10T08:41:54;23.50;94.20
41722;DHT22;27407;24.142;-110.310;2023-05-10T08:44:24;23.30;94.30
41722;DHT22;27407;24.142;-110.310;2023-05-10T08:46:54;23.40;93.50
41722;DHT22;27407;24.142;-110.310;2023-05-10T08:49:22;23.30;92.90
41722;DHT22;27407;24.142;-110.310;2023-05-10T08:51:53;23.30;92.30
41722;DHT22;27407;24.142;-110.310;2023-05-10T08:54:21;23.40;91.80
41722;DHT22;27407;24.142;-110.310;2023-05-10T08:56:48;23.40;92.00
41722;DHT22;27407;24.142;-110.310;2023-05-10T08:59:20;23.40;91.70
41722;DHT22;27407;24.142;-110.310;2023-05-10T09:01:48;23.30;91.60
41722;DHT22;27407;24.142;-110.310;2023-05-10T09:04:16;23.40;91.10
41722;DHT22;27407;24.142;-110.310;2023-05-10T09:06:43;23.20;90.60
41722;DHT22;27407;24.142;-110.310;2023-05-10T09:09:09;23.20;90.10
41722;DHT22;27407;24.142;-110.310;2023-05-10T09:11:36;23.20;90.60
41722;DHT22;27407;24.142;-110.310;2023-05-10T09:14:03;23.20;90.60
41722;DHT22;27407;24.142;-110.310;2023-05-10T09:16:30;23.30;90.30
41722;DHT22;27407;24.142;-110.310;2023-05-10T09:18:57;23.30;89.90
41722;DHT22;27407;24.142;-110.310;2023-05-10T09:21:24;23.30;89.70
41722;DHT22;27407;24.142;-110.310;2023-05-10T09:23:51;23.40;90.00
41722;DHT22;27407;24.142;-110.310;2023-05-10T09:26:23;23.30;89.40
41722;DHT22;27407;24.142;-110.310;2023-05-10T09:28:55;23.20;88.90
41722;DHT22;27407;24.142;-110.310;2023-05-10T09:31:22;23.10;88.20
41722;DHT22;27407;24.142;-110.310;2023-05-10T09:33:51;23.20;86.80
41722;DHT22;27407;24.142;-110.310;2023-05-10T09:36:18;23.30;86.30
41722;DHT22;27407;24.142;-110.310;2023-05-10T09:38:49;23.10;86.60
41722;DHT22;27407;24.142;-110.310;2023-05-10T09:41:24;23.10;85.60
41722;DHT22;27407;24.142;-110.310;2023-05-10T09:43:55;23.00;85.80
41722;DHT22;27407;24.142;-110.310;2023-05-10T09:46:22;23.00;85.70
41722;DHT22;27407;24.142;-110.310;2023-05-10T09:48:49;22.90;85.60
41722;DHT22;27407;24.142;-110.310;2023-05-10T09:51:20;22.90;85.00
41722;DHT22;27407;24.142;-110.310;2023-05-10T09:53:47;22.80;85.30
41722;DHT22;27407;24.142;-110.310;2023-05-10T09:56:33;22.90;84.80
41722;DHT22;27407;24.142;-110.310;2023-05-10T09:59:06;22.90;84.90
41722;DHT22;27407;24.142;-110.310;2023-05-10T10:01:34;22.80;84.50
41722;DHT22;27407;24.142;-110.310;2023-05-10T10:04:09;23.10;83.40
41722;DHT22;27407;24.142;-110.310;2023-05-10T10:06:37;22.90;84.20
41722;DHT22;27407;24.142;-110.310;2023-05-10T10:09:04;22.80;84.40
41722;DHT22;27407;24.142;-110.310;2023-05-10T10:11:40;22.90;83.50
41722;DHT22;27407;24.142;-110.310;2023-05-10T10:14:07;23.00;82.90
41722;DHT22;27407;24.142;-110.310;2023-05-10T10:16:34;23.00;82.80
41722;DHT22;27407;24.142;-110.310;2023-05-10T10:19:01;22.80;82.00
41722;DHT22;27407;24.142;-110.310;2023-05-10T10:21:28;22.90;81.90
41722;DHT22;27407;24.142;-110.310;2023-05-10T10:23:54;22.90;80.80
41722;DHT22;27407;24.142;-110.310;2023-05-10T10:26:25;23.00;80.40
41722;DHT22;27407;24.142;-110.310;2023-05-10T10:34:11;23.10;77.70
41722;DHT22;27407;24.142;-110.310;2023-05-10T10:36:46;23.10;76.70
41722;DHT22;27407;24.142;-110.310;2023-05-10T10:39:14;23.10;76.30
41722;DHT22;27407;24.142;-110.310;2023-05-10T10:50:06;23.30;74.10
41722;DHT22;27407;24.142;-110.310;2023-05-10T10:52:37;23.30;74.20
41722;DHT22;27407;24.142;-110.310;2023-05-10T10:55:13;23.10;74.10
41722;DHT22;27407;24.142;-110.310;2023-05-10T10:57:54;23.10;73.00
41722;DHT22;27407;24.142;-110.310;2023-05-10T11:00:33;23.10;74.00
41722;DHT22;27407;24.142;-110.310;2023-05-10T11:03:11;23.00;72.90
41722;DHT22;27407;24.142;-110.310;2023-05-10T11:05:48;23.00;72.10
41722;DHT22;27407;24.142;-110.310;2023-05-10T11:08:27;23.10;70.90
41722;DHT22;27407;24.142;-110.310;2023-05-10T11:11:05;23.20;71.00
41722;DHT22;27407;24.142;-110.310;2023-05-10T11:16:22;23.00;74.10
41722;DHT22;27407;24.142;-110.310;2023-05-10T11:19:06;23.00;74.30
41722;DHT22;27407;24.142;-110.310;2023-05-10T11:21:34;22.80;76.80
41722;DHT22;27407;24.142;-110.310;2023-05-10T11:24:14;22.60;77.60
41722;DHT22;27407;24.142;-110.310;2023-05-10T11:26:42;22.40;78.20
41722;DHT22;27407;24.142;-110.310;2023-05-10T11:29:09;22.40;78.20
41722;DHT22;27407;24.142;-110.310;2023-05-10T11:31:45;22.30;77.40
41722;DHT22;27407;24.142;-110.310;2023-05-10T11:34:29;22.20;78.10
41722;DHT22;27407;24.142;-110.310;2023-05-10T11:36:56;22.20;78.40
41722;DHT22;27407;24.142;-110.310;2023-05-10T11:39:31;22.20;79.00
41722;DHT22;27407;24.142;-110.310;2023-05-10T11:41:58;22.10;79.20
41722;DHT22;27407;24.142;-110.310;2023-05-10T11:44:36;22.00;79.10
41722;DHT22;27407;24.142;-110.310;2023-05-10T11:47:03;22.10;78.50
41722;DHT22;27407;24.142;-110.310;2023-05-10T11:49:29;22.10;77.70
41722;DHT22;27407;24.142;-110.310;2023-05-10T11:52:08;22.20;77.00
41722;DHT22;27407;24.142;-110.310;2023-05-10T11:54:51;22.10;77.00
41722;DHT22;27407;24.142;-110.310;2023-05-10T11:57:25;22.10;77.20
41722;DHT22;27407;24.142;-110.310;2023-05-10T11:59:57;22.10;78.00
41722;DHT22;27407;24.142;-110.310;2023-05-10T12:02:24;21.90;78.30
41722;DHT22;27407;24.142;-110.310;2023-05-10T12:04:51;21.90;78.30
41722;DHT22;27407;24.142;-110.310;2023-05-10T12:07:18;21.70;79.20
41722;DHT22;27407;24.142;-110.310;2023-05-10T12:10:01;21.60;79.20
41722;DHT22;27407;24.142;-110.310;2023-05-10T12:12:38;21.50;79.80
41722;DHT22;27407;24.142;-110.310;2023-05-10T12:15:16;21.50;77.60
41722;DHT22;27407;24.142;-110.310;2023-05-10T12:17:45;21.50;77.80
41722;DHT22;27407;24.142;-110.310;2023-05-10T12:20:26;21.50;77.90
41722;DHT22;27407;24.142;-110.310;2023-05-10T12:22:55;21.50;78.30
41722;DHT22;27407;24.142;-110.310;2023-05-10T12:25:23;21.40;79.10
41722;DHT22;27407;24.142;-110.310;2023-05-10T12:27:57;21.30;79.40
41722;DHT22;27407;24.142;-110.310;2023-05-10T12:30:28;21.50;79.20
41722;DHT22;27407;24.142;-110.310;2023-05-10T12:33:15;21.50;80.30
41722;DHT22;27407;24.142;-110.310;2023-05-10T12:35:48;21.50;79.80
41722;DHT22;27407;24.142;-110.310;2023-05-10T12:38:38;21.40;79.90
41722;DHT22;27407;24.142;-110.310;2023-05-10T12:41:10;21.50;80.00
41722;DHT22;27407;24.142;-110.310;2023-05-10T12:43:38;21.30;80.60
41722;DHT22;27407;24.142;-110.310;2023-05-10T12:46:09;21.30;80.40
41722;DHT22;27407;24.142;-110.310;2023-05-10T12:48:36;21.30;81.00
41722;DHT22;27407;24.142;-110.310;2023-05-10T12:51:19;21.30;80.70
41722;DHT22;27407;24.142;-110.310;2023-05-10T12:53:53;21.30;81.40
41722;DHT22;27407;24.142;-110.310;2023-05-10T12:56:20;21.30;82.20
41722;DHT22;27407;24.142;-110.310;2023-05-10T12:58:47;21.20;82.40
41722;DHT22;27407;24.142;-110.310;2023-05-10T13:01:14;21.10;81.80
41722;DHT22;27407;24.142;-110.310;2023-05-10T13:03:41;21.10;82.40
41722;DHT22;27407;24.142;-110.310;2023-05-10T13:06:09;21.10;82.30
41722;DHT22;27407;24.142;-110.310;2023-05-10T13:08:35;21.00;82.50
41722;DHT22;27407;24.142;-110.310;2023-05-10T13:11:03;21.00;83.50
41722;DHT22;27407;24.142;-110.310;2023-05-10T13:13:29;21.00;82.40
41722;DHT22;27407;24.142;-110.310;2023-05-10T13:15:56;20.90;82.00
41722;DHT22;27407;24.142;-110.310;2023-05-10T13:18:23;21.00;83.10
41722;DHT22;27407;24.142;-110.310;2023-05-10T13:20:50;21.00;82.40
41722;DHT22;27407;24.142;-110.310;2023-05-10T13:23:17;21.00;81.30
41722;DHT22;27407;24.142;-110.310;2023-05-10T13:25:43;21.00;83.10
41722;DHT22;27407;24.142;-110.310;2023-05-10T13:28:10;21.00;79.70
41722;DHT22;27407;24.142;-110.310;2023-05-10T13:30:37;21.20;79.40
41722;DHT22;27407;24.142;-110.310;2023-05-10T13:33:03;21.30;83.60
41722;DHT22;27407;24.142;-110.310;2023-05-10T13:35:31;21.30;82.60
41722;DHT22;27407;24.142;-110.310;2023-05-10T13:37:58;21.30;80.70
41722;DHT22;27407;24.142;-110.310;2023-05-10T13:40:25;21.30;81.90
41722;DHT22;27407;24.142;-110.310;2023-05-10T13:42:55;21.30;78.80
41722;DHT22;27407;24.142;-110.310;2023-05-10T13:45:22;21.30;80.20
41722;DHT22;27407;24.142;-110.310;2023-05-10T13:47:50;21.20;82.60
41722;DHT22;27407;24.142;-110.310;2023-05-10T13:50:17;21.20;81.40
41722;DHT22;27407;24.142;-110.310;2023-05-10T13:52:44;21.20;81.90
41722;DHT22;27407;24.142;-110.310;2023-05-10T13:55:17;21.20;81.90
41722;DHT22;27407;24.142;-110.310;2023-05-10T13:57:44;21.30;81.60
41722;DHT22;27407;24.142;-110.310;2023-05-10T14:00:20;21.40;81.20
41722;DHT22;27407;24.142;-110.310;2023-05-10T14:02:50;21.40;80.90
41722;DHT22;27407;24.142;-110.310;2023-05-10T14:05:20;21.60;80.50
41722;DHT22;27407;24.142;-110.310;2023-05-10T14:08:01;21.60;79.30
41722;DHT22;27407;24.142;-110.310;2023-05-10T14:10:36;21.80;77.20
41722;DHT22;27407;24.142;-110.310;2023-05-10T14:13:09;22.10;77.80
41722;DHT22;27407;24.142;-110.310;2023-05-10T14:15:36;22.30;77.90
41722;DHT22;27407;24.142;-110.310;2023-05-10T14:18:03;22.40;75.50
41722;DHT22;27407;24.142;-110.310;2023-05-10T14:20:29;22.70;76.60
41722;DHT22;27407;24.142;-110.310;2023-05-10T14:22:58;22.90;73.90
41722;DHT22;27407;24.142;-110.310;2023-05-10T14:25:24;23.20;72.50
41722;DHT22;27407;24.142;-110.310;2023-05-10T14:27:51;23.40;69.60
41722;DHT22;27407;24.142;-110.310;2023-05-10T14:30:20;23.60;64.80
41722;DHT22;27407;24.142;-110.310;2023-05-10T14:32:47;23.90;63.10
41722;DHT22;27407;24.142;-110.310;2023-05-10T14:35:14;24.20;63.60
41722;DHT22;27407;24.142;-110.310;2023-05-10T14:37:40;24.40;61.90
41722;DHT22;27407;24.142;-110.310;2023-05-10T14:40:08;24.60;61.30
41722;DHT22;27407;24.142;-110.310;2023-05-10T14:42:35;24.80;59.80
41722;DHT22;27407;24.142;-110.310;2023-05-10T14:45:02;25.00;61.80
41722;DHT22;27407;24.142;-110.310;2023-05-10T14:47:29;25.20;59.90
41722;DHT22;27407;24.142;-110.310;2023-05-10T14:49:56;25.40;59.90
41722;DHT22;27407;24.142;-110.310;2023-05-10T14:52:22;25.60;59.90
41722;DHT22;27407;24.142;-110.310;2023-05-10T14:54:49;25.80;59.80
41722;DHT22;27407;24.142;-110.310;2023-05-10T14:57:16;26.00;61.20
41722;DHT22;27407;24.142;-110.310;2023-05-10T14:59:42;26.20;60.60
41722;DHT22;27407;24.142;-110.310;2023-05-10T15:02:09;26.30;62.00
41722;DHT22;27407;24.142;-110.310;2023-05-10T15:04:36;26.70;58.90
41722;DHT22;27407;24.142;-110.310;2023-05-10T15:07:03;26.80;60.50
41722;DHT22;27407;24.142;-110.310;2023-05-10T15:09:30;27.10;58.30
41722;DHT22;27407;24.142;-110.310;2023-05-10T15:11:56;27.20;59.50
41722;DHT22;27407;24.142;-110.310;2023-05-10T15:14:25;27.30;59.50
41722;DHT22;27407;24.142;-110.310;2023-05-10T15:16:52;27.40;58.80
41722;DHT22;27407;24.142;-110.310;2023-05-10T15:19:20;27.60;58.20
41722;DHT22;27407;24.142;-110.310;2023-05-10T15:21:47;27.80;58.10
41722;DHT22;27407;24.142;-110.310;2023-05-10T15:24:13;28.00;57.00
41722;DHT22;27407;24.142;-110.310;2023-05-10T15:26:40;28.10;56.10
41722;DHT22;27407;24.142;-110.310;2023-05-10T15:29:07;28.30;56.30
41722;DHT22;27407;24.142;-110.310;2023-05-10T15:31:33;28.30;54.90
41722;DHT22;27407;24.142;-110.310;2023-05-10T15:34:03;28.40;53.70
41722;DHT22;27407;24.142;-110.310;2023-05-10T15:36:31;28.60;52.40
41722;DHT22;27407;24.142;-110.310;2023-05-10T15:38:58;28.60;49.40
41722;DHT22;27407;24.142;-110.310;2023-05-10T15:41:24;28.70;49.20
41722;DHT22;27407;24.142;-110.310;2023-05-10T15:43:51;29.00;48.70